Alplaus, NY

12:30 PM EDT on August 31, 2016 (GMT -0400)
NonFedAWOS | | Change Station

Elev 377 ft 42.85 °N, 73.93 °W | Updated 21 minutes ago

Overcast
Overcast
70 °F
Feels Like 70 °F
N
0
Wind Variable Wind from North
Gusts 0.0 mph

Today
High -- | Low -- °F
--% Chance of Precip.
Yesterday
High -- | Low -- °F
Precip. -- in
Pressure 29.95 in
Visibility 10.0 miles
Clouds Mostly Cloudy 12000 ft
Mostly Cloudy 15000 ft
Overcast 18000 ft
Dew Point 63 °F
Humidity 78%
Rainfall in
Snow Depth Not available.
6:19 AM 7:31 PM
Waning Crescent, 1% visible
METAR KALB 311551Z VRB03KT 10SM BKN120 BKN150 OVC180 22/17 A2995 RMK AO2 RAB19E29 SLP141 VCSH S P0000 T02220172
Pressure 29.95 in
Visibility 10.0 miles
Clouds Mostly Cloudy 12000 ft
Mostly Cloudy 15000 ft
Overcast 18000 ft
Dew Point 63 °F
Humidity 78%
Rainfall in
Snow Depth Not available.
6:19 AM 7:31 PM
Waning Crescent, 1% visible
METAR KALB 311551Z VRB03KT 10SM BKN120 BKN150 OVC180 22/17 A2995 RMK AO2 RAB19E29 SLP141 VCSH S P0000 T02220172

10-Day Weather Forecast

Almanac

Astronomy

Aug. 31, 2016 Rise Set
Actual Time
Civil Twilight
Nautical Twilight
Astronomical Twilight
Moon
Length of Visible Light
Length of Day
Tomorrow will be .
, % of the Moon is Illuminated

Today's Extremes

State Highs State Lows

Community

WunderPhotos

Upload Photos

1,936,109 photos uploaded!

WunderBlog® & News

Nearby

Air Quality

  Air Quality AQ Index Pollutant
Not available.

Snow Depth

Station Depth Elevation

Earthquake Activity

City Distance Mag. Time & Date
Minimum magnitude displayed is 2.5.

Coastal Water Temperatures

Place Temperature

Stations

Nearby Weather Stations

Station Location Temp. Windchill Dew Point Humidity Wind Precip. Elev Updated Type
                   

Watches & Warnings

There are currently no watches in effect.